sensor_id;sensor_type;location;lat;lon;timestamp;temperature;humidity
7234;DHT22;3658;47.992;10.158;2023-07-31T00:01:44;22.10;55.80
7234;DHT22;3658;47.992;10.158;2023-07-31T00:04:11;22.10;55.80
7234;DHT22;3658;47.992;10.158;2023-07-31T00:06:38;22.10;55.70
7234;DHT22;3658;47.992;10.158;2023-07-31T00:09:06;22.10;55.70
7234;DHT22;3658;47.992;10.158;2023-07-31T00:11:33;22.10;55.70
7234;DHT22;3658;47.992;10.158;2023-07-31T00:14:00;22.10;55.70
7234;DHT22;3658;47.992;10.158;2023-07-31T00:16:26;22.10;55.70
7234;DHT22;3658;47.992;10.158;2023-07-31T00:18:56;22.10;55.80
7234;DHT22;3658;47.992;10.158;2023-07-31T00:21:26;22.10;55.70
7234;DHT22;3658;47.992;10.158;2023-07-31T00:23:53;22.10;55.70
7234;DHT22;3658;47.992;10.158;2023-07-31T00:26:21;22.00;55.60
7234;DHT22;3658;47.992;10.158;2023-07-31T00:28:47;22.10;55.70
7234;DHT22;3658;47.992;10.158;2023-07-31T00:31:14;22.00;55.60
7234;DHT22;3658;47.992;10.158;2023-07-31T00:33:41;22.10;55.70
7234;DHT22;3658;47.992;10.158;2023-07-31T00:36:08;22.10;55.70
7234;DHT22;3658;47.992;10.158;2023-07-31T00:38:34;22.10;55.70
7234;DHT22;3658;47.992;10.158;2023-07-31T00:41:01;22.10;55.70
7234;DHT22;3658;47.992;10.158;2023-07-31T00:43:30;22.00;55.60
7234;DHT22;3658;47.992;10.158;2023-07-31T00:45:56;22.00;55.60
7234;DHT22;3658;47.992;10.158;2023-07-31T00:48:23;22.10;55.70
7234;DHT22;3658;47.992;10.158;2023-07-31T00:50:50;22.10;55.70
7234;DHT22;3658;47.992;10.158;2023-07-31T00:53:17;22.00;55.60
7234;DHT22;3658;47.992;10.158;2023-07-31T00:55:44;22.00;56.20
7234;DHT22;3658;47.992;10.158;2023-07-31T00:58:11;22.00;55.60
7234;DHT22;3658;47.992;10.158;2023-07-31T01:00:39;22.00;55.60
7234;DHT22;3658;47.992;10.158;2023-07-31T01:03:06;22.00;55.60
7234;DHT22;3658;47.992;10.158;2023-07-31T01:05:39;22.00;55.60
7234;DHT22;3658;47.992;10.158;2023-07-31T01:08:12;22.00;55.60
7234;DHT22;3658;47.992;10.158;2023-07-31T01:10:49;22.00;56.20
7234;DHT22;3658;47.992;10.158;2023-07-31T01:13:18;22.00;55.60
7234;DHT22;3658;47.992;10.158;2023-07-31T01:15:47;22.00;55.60
7234;DHT22;3658;47.992;10.158;2023-07-31T01:18:13;22.00;55.60
7234;DHT22;3658;47.992;10.158;2023-07-31T01:20:42;22.00;55.60
7234;DHT22;3658;47.992;10.158;2023-07-31T01:23:35;22.00;55.60
7234;DHT22;3658;47.992;10.158;2023-07-31T01:26:12;22.00;55.60
7234;DHT22;3658;47.992;10.158;2023-07-31T01:28:46;22.00;55.60
7234;DHT22;3658;47.992;10.158;2023-07-31T01:31:20;22.00;55.60
7234;DHT22;3658;47.992;10.158;2023-07-31T01:33:48;22.00;55.60
7234;DHT22;3658;47.992;10.158;2023-07-31T01:36:16;22.00;55.60
7234;DHT22;3658;47.992;10.158;2023-07-31T01:38:43;22.00;55.90
7234;DHT22;3658;47.992;10.158;2023-07-31T01:41:11;22.00;55.60
7234;DHT22;3658;47.992;10.158;2023-07-31T01:43:38;22.00;55.60
7234;DHT22;3658;47.992;10.158;2023-07-31T01:46:05;22.00;55.60
7234;DHT22;3658;47.992;10.158;2023-07-31T01:48:32;22.00;55.60
7234;DHT22;3658;47.992;10.158;2023-07-31T01:51:01;22.00;55.60
7234;DHT22;3658;47.992;10.158;2023-07-31T01:53:28;22.00;55.60
7234;DHT22;3658;47.992;10.158;2023-07-31T01:55:55;22.00;55.60
7234;DHT22;3658;47.992;10.158;2023-07-31T01:58:23;22.00;55.60
7234;DHT22;3658;47.992;10.158;2023-07-31T02:00:50;22.00;55.60
7234;DHT22;3658;47.992;10.158;2023-07-31T02:03:17;22.00;55.60
7234;DHT22;3658;47.992;10.158;2023-07-31T02:05:44;22.00;55.60
7234;DHT22;3658;47.992;10.158;2023-07-31T02:08:11;22.00;55.60
7234;DHT22;3658;47.992;10.158;2023-07-31T02:10:38;22.00;55.60
7234;DHT22;3658;47.992;10.158;2023-07-31T02:13:05;22.00;55.60
7234;DHT22;3658;47.992;10.158;2023-07-31T02:15:33;22.00;55.60
7234;DHT22;3658;47.992;10.158;2023-07-31T02:18:00;22.00;55.60
7234;DHT22;3658;47.992;10.158;2023-07-31T02:20:27;22.00;55.60
7234;DHT22;3658;47.992;10.158;2023-07-31T02:22:53;22.00;55.60
7234;DHT22;3658;47.992;10.158;2023-07-31T02:25:20;22.00;55.60
7234;DHT22;3658;47.992;10.158;2023-07-31T02:27:47;22.00;55.60
7234;DHT22;3658;47.992;10.158;2023-07-31T02:30:14;22.00;55.60
7234;DHT22;3658;47.992;10.158;2023-07-31T02:32:42;22.00;55.60
7234;DHT22;3658;47.992;10.158;2023-07-31T02:35:08;22.00;55.60
7234;DHT22;3658;47.992;10.158;2023-07-31T02:37:36;22.00;55.60
7234;DHT22;3658;47.992;10.158;2023-07-31T02:40:05;22.00;55.60
7234;DHT22;3658;47.992;10.158;2023-07-31T02:42:32;22.00;55.60
7234;DHT22;3658;47.992;10.158;2023-07-31T02:44:58;22.00;55.60
7234;DHT22;3658;47.992;10.158;2023-07-31T02:47:25;22.00;55.60
7234;DHT22;3658;47.992;10.158;2023-07-31T02:49:53;22.00;55.60
7234;DHT22;3658;47.992;10.158;2023-07-31T02:52:21;22.00;55.60
7234;DHT22;3658;47.992;10.158;2023-07-31T02:54:48;22.00;55.60
7234;DHT22;3658;47.992;10.158;2023-07-31T02:57:14;22.00;55.60
7234;DHT22;3658;47.992;10.158;2023-07-31T02:59:42;22.00;55.60
7234;DHT22;3658;47.992;10.158;2023-07-31T03:02:08;22.00;55.60
7234;DHT22;3658;47.992;10.158;2023-07-31T03:04:36;22.00;55.60
7234;DHT22;3658;47.992;10.158;2023-07-31T03:07:05;22.00;55.60
7234;DHT22;3658;47.992;10.158;2023-07-31T03:09:31;22.00;55.60
7234;DHT22;3658;47.992;10.158;2023-07-31T03:11:58;21.90;55.50
7234;DHT22;3658;47.992;10.158;2023-07-31T03:14:25;22.00;55.60
7234;DHT22;3658;47.992;10.158;2023-07-31T03:16:53;21.90;55.50
7234;DHT22;3658;47.992;10.158;2023-07-31T03:19:19;22.00;55.60
7234;DHT22;3658;47.992;10.158;2023-07-31T03:21:46;21.90;55.50
7234;DHT22;3658;47.992;10.158;2023-07-31T03:24:14;22.00;55.60
7234;DHT22;3658;47.992;10.158;2023-07-31T03:26:41;21.90;55.50
7234;DHT22;3658;47.992;10.158;2023-07-31T03:29:08;22.00;55.60
7234;DHT22;3658;47.992;10.158;2023-07-31T03:31:35;21.90;55.60
7234;DHT22;3658;47.992;10.158;2023-07-31T03:34:01;21.90;55.50
7234;DHT22;3658;47.992;10.158;2023-07-31T03:36:28;21.90;55.50
7234;DHT22;3658;47.992;10.158;2023-07-31T03:38:55;21.90;55.50
7234;DHT22;3658;47.992;10.158;2023-07-31T03:41:23;21.90;55.50
7234;DHT22;3658;47.992;10.158;2023-07-31T03:43:51;21.90;55.50
7234;DHT22;3658;47.992;10.158;2023-07-31T03:46:18;21.90;55.50
7234;DHT22;3658;47.992;10.158;2023-07-31T03:48:45;21.90;55.50
7234;DHT22;3658;47.992;10.158;2023-07-31T03:51:12;21.90;55.50
7234;DHT22;3658;47.992;10.158;2023-07-31T03:53:38;21.90;55.50
7234;DHT22;3658;47.992;10.158;2023-07-31T03:56:05;21.90;55.50
7234;DHT22;3658;47.992;10.158;2023-07-31T03:58:33;21.90;55.50
7234;DHT22;3658;47.992;10.158;2023-07-31T04:01:00;21.90;55.50
7234;DHT22;3658;47.992;10.158;2023-07-31T04:03:27;21.90;55.50
7234;DHT22;3658;47.992;10.158;2023-07-31T04:05:54;21.90;55.50
7234;DHT22;3658;47.992;10.158;2023-07-31T04:08:21;21.90;55.50
7234;DHT22;3658;47.992;10.158;2023-07-31T04:10:48;21.90;55.50
7234;DHT22;3658;47.992;10.158;2023-07-31T04:13:15;21.90;55.50
7234;DHT22;3658;47.992;10.158;2023-07-31T04:15:48;21.90;55.50
7234;DHT22;3658;47.992;10.158;2023-07-31T04:18:15;21.90;55.50
7234;DHT22;3658;47.992;10.158;2023-07-31T04:20:41;21.90;55.50
7234;DHT22;3658;47.992;10.158;2023-07-31T04:23:08;21.90;55.50
7234;DHT22;3658;47.992;10.158;2023-07-31T04:25:35;21.90;55.50
7234;DHT22;3658;47.992;10.158;2023-07-31T04:28:02;21.90;55.50
7234;DHT22;3658;47.992;10.158;2023-07-31T04:30:28;21.90;55.50
7234;DHT22;3658;47.992;10.158;2023-07-31T04:32:57;21.90;55.50
7234;DHT22;3658;47.992;10.158;2023-07-31T04:35:23;21.90;55.50
7234;DHT22;3658;47.992;10.158;2023-07-31T04:37:50;21.90;55.50
7234;DHT22;3658;47.992;10.158;2023-07-31T04:40:17;21.90;55.50
7234;DHT22;3658;47.992;10.158;2023-07-31T04:42:44;21.90;55.40
7234;DHT22;3658;47.992;10.158;2023-07-31T04:45:11;21.90;55.50
7234;DHT22;3658;47.992;10.158;2023-07-31T04:47:38;21.90;55.50
7234;DHT22;3658;47.992;10.158;2023-07-31T04:50:07;21.90;55.50
7234;DHT22;3658;47.992;10.158;2023-07-31T04:52:34;21.90;55.50
7234;DHT22;3658;47.992;10.158;2023-07-31T04:55:01;21.90;55.50
7234;DHT22;3658;47.992;10.158;2023-07-31T04:57:28;21.90;55.50
7234;DHT22;3658;47.992;10.158;2023-07-31T04:59:55;21.90;55.50
7234;DHT22;3658;47.992;10.158;2023-07-31T05:02:22;21.90;55.50
7234;DHT22;3658;47.992;10.158;2023-07-31T05:04:50;21.90;55.50
7234;DHT22;3658;47.992;10.158;2023-07-31T05:07:18;21.90;55.50
7234;DHT22;3658;47.992;10.158;2023-07-31T05:09:44;21.90;55.50
7234;DHT22;3658;47.992;10.158;2023-07-31T05:12:11;21.90;55.50
7234;DHT22;3658;47.992;10.158;2023-07-31T05:14:38;21.90;55.50
7234;DHT22;3658;47.992;10.158;2023-07-31T05:17:05;21.90;55.50
7234;DHT22;3658;47.992;10.158;2023-07-31T05:19:32;21.90;55.50
7234;DHT22;3658;47.992;10.158;2023-07-31T05:21:59;21.90;55.50
7234;DHT22;3658;47.992;10.158;2023-07-31T05:24:27;21.90;55.50
7234;DHT22;3658;47.992;10.158;2023-07-31T05:26:53;21.90;55.50
7234;DHT22;3658;47.992;10.158;2023-07-31T05:29:20;21.80;55.40
7234;DHT22;3658;47.992;10.158;2023-07-31T05:31:47;21.90;55.50
7234;DHT22;3658;47.992;10.158;2023-07-31T05:34:14;21.90;55.50
7234;DHT22;3658;47.992;10.158;2023-07-31T05:36:40;21.90;55.50
7234;DHT22;3658;47.992;10.158;2023-07-31T05:39:07;21.90;55.50
7234;DHT22;3658;47.992;10.158;2023-07-31T05:41:35;21.90;55.50
7234;DHT22;3658;47.992;10.158;2023-07-31T05:44:03;21.90;56.30
7234;DHT22;3658;47.992;10.158;2023-07-31T05:46:30;21.90;56.70
7234;DHT22;3658;47.992;10.158;2023-07-31T05:48:57;22.00;57.10
7234;DHT22;3658;47.992;10.158;2023-07-31T05:51:26;21.90;57.50
7234;DHT22;3658;47.992;10.158;2023-07-31T05:53:53;22.00;57.70
7234;DHT22;3658;47.992;10.158;2023-07-31T05:56:19;22.00;57.70
7234;DHT22;3658;47.992;10.158;2023-07-31T05:58:48;21.90;57.50
7234;DHT22;3658;47.992;10.158;2023-07-31T06:01:15;22.00;57.30
7234;DHT22;3658;47.992;10.158;2023-07-31T06:03:42;21.90;57.20
7234;DHT22;3658;47.992;10.158;2023-07-31T06:06:09;22.00;57.20
7234;DHT22;3658;47.992;10.158;2023-07-31T06:08:36;22.00;57.20
7234;DHT22;3658;47.992;10.158;2023-07-31T06:11:03;22.00;57.20
7234;DHT22;3658;47.992;10.158;2023-07-31T06:13:29;22.00;57.20
7234;DHT22;3658;47.992;10.158;2023-07-31T06:15:58;22.00;57.30
7234;DHT22;3658;47.992;10.158;2023-07-31T06:18:25;22.00;57.30
7234;DHT22;3658;47.992;10.158;2023-07-31T06:20:52;22.00;57.30
7234;DHT22;3658;47.992;10.158;2023-07-31T06:23:19;22.00;57.30
7234;DHT22;3658;47.992;10.158;2023-07-31T06:25:46;22.00;57.30
7234;DHT22;3658;47.992;10.158;2023-07-31T06:28:13;22.00;57.40
7234;DHT22;3658;47.992;10.158;2023-07-31T06:30:39;22.00;57.20
7234;DHT22;3658;47.992;10.158;2023-07-31T06:33:08;22.00;57.20
7234;DHT22;3658;47.992;10.158;2023-07-31T06:35:35;22.00;58.00
7234;DHT22;3658;47.992;10.158;2023-07-31T06:38:02;22.10;58.10
7234;DHT22;3658;47.992;10.158;2023-07-31T06:40:29;22.10;58.00
7234;DHT22;3658;47.992;10.158;2023-07-31T06:42:55;22.10;57.80
7234;DHT22;3658;47.992;10.158;2023-07-31T06:45:22;22.10;57.80
7234;DHT22;3658;47.992;10.158;2023-07-31T06:47:49;22.20;57.90
7234;DHT22;3658;47.992;10.158;2023-07-31T06:50:17;22.20;58.00
7234;DHT22;3658;47.992;10.158;2023-07-31T06:52:44;22.20;58.00
7234;DHT22;3658;47.992;10.158;2023-07-31T06:55:18;22.20;58.30
7234;DHT22;3658;47.992;10.158;2023-07-31T06:57:45;22.30;58.40
7234;DHT22;3658;47.992;10.158;2023-07-31T07:00:13;22.30;58.40
7234;DHT22;3658;47.992;10.158;2023-07-31T07:02:40;22.30;58.30
7234;DHT22;3658;47.992;10.158;2023-07-31T07:05:07;22.30;58.30
7234;DHT22;3658;47.992;10.158;2023-07-31T07:07:35;22.30;58.30
7234;DHT22;3658;47.992;10.158;2023-07-31T07:10:03;22.40;58.40
7234;DHT22;3658;47.992;10.158;2023-07-31T07:12:31;22.30;58.20
7234;DHT22;3658;47.992;10.158;2023-07-31T07:14:58;22.30;58.30
7234;DHT22;3658;47.992;10.158;2023-07-31T07:17:25;22.30;58.00
7234;DHT22;3658;47.992;10.158;2023-07-31T07:19:52;22.30;58.50
7234;DHT22;3658;47.992;10.158;2023-07-31T07:22:19;22.30;58.50
7234;DHT22;3658;47.992;10.158;2023-07-31T07:24:47;22.40;58.40
7234;DHT22;3658;47.992;10.158;2023-07-31T07:27:14;22.40;58.40
7234;DHT22;3658;47.992;10.158;2023-07-31T07:29:41;22.40;58.50
7234;DHT22;3658;47.992;10.158;2023-07-31T07:32:08;22.40;58.40
7234;DHT22;3658;47.992;10.158;2023-07-31T07:34:35;22.40;58.50
7234;DHT22;3658;47.992;10.158;2023-07-31T07:37:01;22.40;58.40
7234;DHT22;3658;47.992;10.158;2023-07-31T07:39:28;22.40;58.30
7234;DHT22;3658;47.992;10.158;2023-07-31T07:41:56;22.40;58.30
7234;DHT22;3658;47.992;10.158;2023-07-31T07:44:23;22.40;58.70
7234;DHT22;3658;47.992;10.158;2023-07-31T07:46:50;22.40;58.80
7234;DHT22;3658;47.992;10.158;2023-07-31T07:49:17;22.40;58.60
7234;DHT22;3658;47.992;10.158;2023-07-31T07:51:43;22.40;58.80
7234;DHT22;3658;47.992;10.158;2023-07-31T07:54:10;22.40;58.80
7234;DHT22;3658;47.992;10.158;2023-07-31T07:56:37;22.40;58.60
7234;DHT22;3658;47.992;10.158;2023-07-31T07:59:05;22.40;58.80
7234;DHT22;3658;47.992;10.158;2023-07-31T08:01:32;22.40;58.50
7234;DHT22;3658;47.992;10.158;2023-07-31T08:03:59;22.40;58.30
7234;DHT22;3658;47.992;10.158;2023-07-31T08:06:26;22.40;58.40
7234;DHT22;3658;47.992;10.158;2023-07-31T08:08:55;22.50;58.40
7234;DHT22;3658;47.992;10.158;2023-07-31T08:11:21;22.40;58.00
7234;DHT22;3658;47.992;10.158;2023-07-31T08:13:49;22.40;58.00
7234;DHT22;3658;47.992;10.158;2023-07-31T08:16:17;22.40;58.50
7234;DHT22;3658;47.992;10.158;2023-07-31T08:18:43;22.40;58.50
7234;DHT22;3658;47.992;10.158;2023-07-31T08:21:10;22.40;58.40
7234;DHT22;3658;47.992;10.158;2023-07-31T08:23:37;22.40;58.30
7234;DHT22;3658;47.992;10.158;2023-07-31T08:26:04;22.50;58.40
7234;DHT22;3658;47.992;10.158;2023-07-31T08:28:30;22.50;58.50
7234;DHT22;3658;47.992;10.158;2023-07-31T08:30:57;22.50;58.40
7234;DHT22;3658;47.992;10.158;2023-07-31T08:33:25;22.50;58.30
7234;DHT22;3658;47.992;10.158;2023-07-31T08:35:52;22.50;58.30
7234;DHT22;3658;47.992;10.158;2023-07-31T08:38:19;22.50;58.30
7234;DHT22;3658;47.992;10.158;2023-07-31T08:40:46;22.50;58.40
7234;DHT22;3658;47.992;10.158;2023-07-31T08:43:13;22.50;58.40
7234;DHT22;3658;47.992;10.158;2023-07-31T08:45:42;22.50;58.30
7234;DHT22;3658;47.992;10.158;2023-07-31T08:48:09;22.50;58.10
7234;DHT22;3658;47.992;10.158;2023-07-31T08:50:38;22.50;58.30
7234;DHT22;3658;47.992;10.158;2023-07-31T08:53:04;22.50;58.50
7234;DHT22;3658;47.992;10.158;2023-07-31T08:55:32;22.50;58.40
7234;DHT22;3658;47.992;10.158;2023-07-31T08:58:00;22.50;58.50
7234;DHT22;3658;47.992;10.158;2023-07-31T09:00:29;22.50;58.60
7234;DHT22;3658;47.992;10.158;2023-07-31T09:02:59;22.50;58.70
7234;DHT22;3658;47.992;10.158;2023-07-31T09:05:29;22.50;58.80
7234;DHT22;3658;47.992;10.158;2023-07-31T09:07:57;22.50;58.90
7234;DHT22;3658;47.992;10.158;2023-07-31T09:10:25;22.50;58.90
7234;DHT22;3658;47.992;10.158;2023-07-31T09:12:52;22.50;58.80
7234;DHT22;3658;47.992;10.158;2023-07-31T09:15:19;22.50;58.30
7234;DHT22;3658;47.992;10.158;2023-07-31T09:17:46;22.40;58.00
7234;DHT22;3658;47.992;10.158;2023-07-31T09:20:15;22.40;58.30
7234;DHT22;3658;47.992;10.158;2023-07-31T09:22:42;22.50;59.10
7234;DHT22;3658;47.992;10.158;2023-07-31T09:25:18;22.50;59.00
7234;DHT22;3658;47.992;10.158;2023-07-31T09:27:49;22.50;59.10
7234;DHT22;3658;47.992;10.158;2023-07-31T09:30:17;22.50;59.10
7234;DHT22;3658;47.992;10.158;2023-07-31T09:32:44;22.50;58.80
7234;DHT22;3658;47.992;10.158;2023-07-31T09:35:19;22.50;58.90
7234;DHT22;3658;47.992;10.158;2023-07-31T09:37:50;22.60;59.10
7234;DHT22;3658;47.992;10.158;2023-07-31T09:40:33;22.50;59.10
7234;DHT22;3658;47.992;10.158;2023-07-31T09:43:01;22.60;59.00
7234;DHT22;3658;47.992;10.158;2023-07-31T09:45:29;22.60;59.10
7234;DHT22;3658;47.992;10.158;2023-07-31T09:47:57;22.50;58.90
7234;DHT22;3658;47.992;10.158;2023-07-31T09:50:24;22.50;58.80
7234;DHT22;3658;47.992;10.158;2023-07-31T09:52:52;22.50;58.70
7234;DHT22;3658;47.992;10.158;2023-07-31T09:55:19;22.60;58.80
7234;DHT22;3658;47.992;10.158;2023-07-31T09:57:48;22.60;58.80
7234;DHT22;3658;47.992;10.158;2023-07-31T10:00:17;22.60;59.30
7234;DHT22;3658;47.992;10.158;2023-07-31T10:02:46;22.60;59.40
7234;DHT22;3658;47.992;10.158;2023-07-31T10:05:14;22.60;58.60
7234;DHT22;3658;47.992;10.158;2023-07-31T10:07:43;22.60;58.50
7234;DHT22;3658;47.992;10.158;2023-07-31T10:10:13;22.60;58.60
7234;DHT22;3658;47.992;10.158;2023-07-31T10:12:42;22.60;58.60
7234;DHT22;3658;47.992;10.158;2023-07-31T10:15:12;22.60;58.50
7234;DHT22;3658;47.992;10.158;2023-07-31T10:17:39;22.60;58.30
7234;DHT22;3658;47.992;10.158;2023-07-31T10:20:07;22.50;58.10
7234;DHT22;3658;47.992;10.158;2023-07-31T10:22:35;22.50;58.10
7234;DHT22;3658;47.992;10.158;2023-07-31T10:25:03;22.40;58.00
7234;DHT22;3658;47.992;10.158;2023-07-31T10:27:30;22.40;58.00
7234;DHT22;3658;47.992;10.158;2023-07-31T10:29:58;22.40;58.00
7234;DHT22;3658;47.992;10.158;2023-07-31T10:32:28;22.40;58.00
7234;DHT22;3658;47.992;10.158;2023-07-31T10:34:55;22.40;57.70
7234;DHT22;3658;47.992;10.158;2023-07-31T10:37:24;22.40;57.30
7234;DHT22;3658;47.992;10.158;2023-07-31T10:39:59;22.30;56.70
7234;DHT22;3658;47.992;10.158;2023-07-31T10:42:34;22.30;56.40
7234;DHT22;3658;47.992;10.158;2023-07-31T10:45:03;22.30;56.20
7234;DHT22;3658;47.992;10.158;2023-07-31T10:47:37;22.30;56.20
7234;DHT22;3658;47.992;10.158;2023-07-31T10:50:17;22.20;55.90
7234;DHT22;3658;47.992;10.158;2023-07-31T10:52:48;22.30;55.60
7234;DHT22;3658;47.992;10.158;2023-07-31T10:55:26;22.30;55.40
7234;DHT22;3658;47.992;10.158;2023-07-31T10:57:54;22.30;55.50
7234;DHT22;3658;47.992;10.158;2023-07-31T11:00:23;22.30;55.70
7234;DHT22;3658;47.992;10.158;2023-07-31T11:03:00;22.20;55.70
7234;DHT22;3658;47.992;10.158;2023-07-31T11:05:51;22.30;55.80
7234;DHT22;3658;47.992;10.158;2023-07-31T11:08:20;22.20;55.90
7234;DHT22;3658;47.992;10.158;2023-07-31T11:10:49;22.20;56.00
7234;DHT22;3658;47.992;10.158;2023-07-31T11:13:16;22.30;56.40
7234;DHT22;3658;47.992;10.158;2023-07-31T11:15:43;22.30;57.10
7234;DHT22;3658;47.992;10.158;2023-07-31T11:18:11;22.40;57.20
7234;DHT22;3658;47.992;10.158;2023-07-31T11:20:38;22.40;57.20
7234;DHT22;3658;47.992;10.158;2023-07-31T11:23:08;22.50;57.20
7234;DHT22;3658;47.992;10.158;2023-07-31T11:25:36;22.50;57.20
7234;DHT22;3658;47.992;10.158;2023-07-31T11:28:04;22.60;57.40
7234;DHT22;3658;47.992;10.158;2023-07-31T11:30:32;22.60;57.40
7234;DHT22;3658;47.992;10.158;2023-07-31T11:33:00;22.60;57.50
7234;DHT22;3658;47.992;10.158;2023-07-31T11:35:30;22.60;57.50
7234;DHT22;3658;47.992;10.158;2023-07-31T11:37:57;22.60;57.50
7234;DHT22;3658;47.992;10.158;2023-07-31T11:40:24;22.60;57.60
7234;DHT22;3658;47.992;10.158;2023-07-31T11:42:55;22.70;57.70
7234;DHT22;3658;47.992;10.158;2023-07-31T11:45:25;22.70;57.80
7234;DHT22;3658;47.992;10.158;2023-07-31T11:47:52;22.70;57.90
7234;DHT22;3658;47.992;10.158;2023-07-31T11:50:20;22.70;58.00
7234;DHT22;3658;47.992;10.158;2023-07-31T11:52:49;22.70;57.80
7234;DHT22;3658;47.992;10.158;2023-07-31T11:55:17;22.70;57.90
7234;DHT22;3658;47.992;10.158;2023-07-31T11:57:45;22.70;57.90
7234;DHT22;3658;47.992;10.158;2023-07-31T12:00:13;22.60;57.30
7234;DHT22;3658;47.992;10.158;2023-07-31T12:02:40;22.50;55.60
7234;DHT22;3658;47.992;10.158;2023-07-31T12:05:10;22.50;54.40
7234;DHT22;3658;47.992;10.158;2023-07-31T12:07:49;22.50;55.40
7234;DHT22;3658;47.992;10.158;2023-07-31T12:10:26;22.60;55.80
7234;DHT22;3658;47.992;10.158;2023-07-31T12:13:01;22.60;56.50
7234;DHT22;3658;47.992;10.158;2023-07-31T12:15:39;22.70;57.10
7234;DHT22;3658;47.992;10.158;2023-07-31T12:18:09;22.70;57.30
7234;DHT22;3658;47.992;10.158;2023-07-31T12:20:41;22.80;57.40
7234;DHT22;3658;47.992;10.158;2023-07-31T12:23:14;22.70;57.50
7234;DHT22;3658;47.992;10.158;2023-07-31T12:25:41;22.80;58.00
7234;DHT22;3658;47.992;10.158;2023-07-31T12:28:08;22.80;58.50
7234;DHT22;3658;47.992;10.158;2023-07-31T12:30:38;22.80;58.30
7234;DHT22;3658;47.992;10.158;2023-07-31T12:33:07;22.80;58.50
7234;DHT22;3658;47.992;10.158;2023-07-31T12:35:38;22.80;58.70
7234;DHT22;3658;47.992;10.158;2023-07-31T12:38:07;22.80;58.70
7234;DHT22;3658;47.992;10.158;2023-07-31T12:40:37;22.80;58.70
7234;DHT22;3658;47.992;10.158;2023-07-31T12:43:04;22.80;58.80
7234;DHT22;3658;47.992;10.158;2023-07-31T12:45:31;22.80;58.90
7234;DHT22;3658;47.992;10.158;2023-07-31T12:47:58;22.80;58.90
7234;DHT22;3658;47.992;10.158;2023-07-31T12:50:26;22.80;59.30
7234;DHT22;3658;47.992;10.158;2023-07-31T12:52:53;22.90;59.40
7234;DHT22;3658;47.992;10.158;2023-07-31T12:55:20;22.90;59.70
7234;DHT22;3658;47.992;10.158;2023-07-31T12:57:49;22.90;59.90
7234;DHT22;3658;47.992;10.158;2023-07-31T13:00:15;22.90;59.80
7234;DHT22;3658;47.992;10.158;2023-07-31T13:02:42;22.90;60.30
7234;DHT22;3658;47.992;10.158;2023-07-31T13:05:09;22.90;59.40
7234;DHT22;3658;47.992;10.158;2023-07-31T13:07:36;22.90;59.30
7234;DHT22;3658;47.992;10.158;2023-07-31T13:10:04;22.90;59.30
7234;DHT22;3658;47.992;10.158;2023-07-31T13:12:31;22.90;59.20
7234;DHT22;3658;47.992;10.158;2023-07-31T13:14:59;22.90;59.20
7234;DHT22;3658;47.992;10.158;2023-07-31T13:17:26;22.90;59.10
7234;DHT22;3658;47.992;10.158;2023-07-31T13:19:53;22.90;59.10
7234;DHT22;3658;47.992;10.158;2023-07-31T13:22:20;22.90;59.00
7234;DHT22;3658;47.992;10.158;2023-07-31T13:24:47;22.90;59.00
7234;DHT22;3658;47.992;10.158;2023-07-31T13:27:14;22.90;59.00
7234;DHT22;3658;47.992;10.158;2023-07-31T13:29:42;22.90;59.20
7234;DHT22;3658;47.992;10.158;2023-07-31T13:32:10;22.90;59.00
7234;DHT22;3658;47.992;10.158;2023-07-31T13:34:37;22.90;59.00
7234;DHT22;3658;47.992;10.158;2023-07-31T13:37:04;22.90;59.20
7234;DHT22;3658;47.992;10.158;2023-07-31T13:39:34;22.90;59.20
7234;DHT22;3658;47.992;10.158;2023-07-31T13:42:04;22.90;59.20
7234;DHT22;3658;47.992;10.158;2023-07-31T13:44:32;22.90;58.90
7234;DHT22;3658;47.992;10.158;2023-07-31T13:47:01;22.90;58.90
7234;DHT22;3658;47.992;10.158;2023-07-31T13:49:30;23.00;59.00
7234;DHT22;3658;47.992;10.158;2023-07-31T13:51:57;22.90;58.90
7234;DHT22;3658;47.992;10.158;2023-07-31T13:54:26;22.90;58.30
7234;DHT22;3658;47.992;10.158;2023-07-31T13:56:56;22.80;56.20
7234;DHT22;3658;47.992;10.158;2023-07-31T13:59:23;22.70;56.20
7234;DHT22;3658;47.992;10.158;2023-07-31T14:01:50;22.80;55.90
7234;DHT22;3658;47.992;10.158;2023-07-31T14:04:17;22.70;55.80
7234;DHT22;3658;47.992;10.158;2023-07-31T14:06:46;22.80;55.60
7234;DHT22;3658;47.992;10.158;2023-07-31T14:09:13;22.70;55.30
7234;DHT22;3658;47.992;10.158;2023-07-31T14:11:42;22.70;55.30
7234;DHT22;3658;47.992;10.158;2023-07-31T14:14:10;22.80;55.60
7234;DHT22;3658;47.992;10.158;2023-07-31T14:16:38;22.70;55.70
7234;DHT22;3658;47.992;10.158;2023-07-31T14:19:05;22.70;55.50
7234;DHT22;3658;47.992;10.158;2023-07-31T14:21:33;22.70;55.60
7234;DHT22;3658;47.992;10.158;2023-07-31T14:24:01;22.70;55.60
7234;DHT22;3658;47.992;10.158;2023-07-31T14:26:28;22.70;55.60
7234;DHT22;3658;47.992;10.158;2023-07-31T14:28:55;22.70;55.60
7234;DHT22;3658;47.992;10.158;2023-07-31T14:31:22;22.70;55.60
7234;DHT22;3658;47.992;10.158;2023-07-31T14:33:49;22.70;55.50
7234;DHT22;3658;47.992;10.158;2023-07-31T14:36:16;22.80;55.70
7234;DHT22;3658;47.992;10.158;2023-07-31T14:38:43;22.70;55.60
7234;DHT22;3658;47.992;10.158;2023-07-31T14:41:11;22.70;55.60
7234;DHT22;3658;47.992;10.158;2023-07-31T14:43:38;22.70;55.50
7234;DHT22;3658;47.992;10.158;2023-07-31T14:46:05;22.70;55.60
7234;DHT22;3658;47.992;10.158;2023-07-31T14:48:31;22.70;55.40
7234;DHT22;3658;47.992;10.158;2023-07-31T14:50:58;22.80;55.60
7234;DHT22;3658;47.992;10.158;2023-07-31T14:53:25;22.70;55.50
7234;DHT22;3658;47.992;10.158;2023-07-31T14:55:52;22.80;55.50
7234;DHT22;3658;47.992;10.158;2023-07-31T14:58:22;22.70;55.40
7234;DHT22;3658;47.992;10.158;2023-07-31T15:00:50;22.80;55.60
7234;DHT22;3658;47.992;10.158;2023-07-31T15:03:17;22.80;55.50
7234;DHT22;3658;47.992;10.158;2023-07-31T15:05:43;22.80;55.60
7234;DHT22;3658;47.992;10.158;2023-07-31T15:08:12;22.80;55.70
7234;DHT22;3658;47.992;10.158;2023-07-31T15:10:39;22.80;55.70
7234;DHT22;3658;47.992;10.158;2023-07-31T15:13:06;22.80;55.70
7234;DHT22;3658;47.992;10.158;2023-07-31T15:15:34;22.80;55.70
7234;DHT22;3658;47.992;10.158;2023-07-31T15:18:01;22.80;55.70
7234;DHT22;3658;47.992;10.158;2023-07-31T15:20:28;22.80;55.80
7234;DHT22;3658;47.992;10.158;2023-07-31T15:22:55;22.80;55.80
7234;DHT22;3658;47.992;10.158;2023-07-31T15:25:22;22.80;55.80
7234;DHT22;3658;47.992;10.158;2023-07-31T15:27:49;22.80;55.90
7234;DHT22;3658;47.992;10.158;2023-07-31T15:30:16;22.80;55.70
7234;DHT22;3658;47.992;10.158;2023-07-31T15:32:44;22.80;55.80
7234;DHT22;3658;47.992;10.158;2023-07-31T15:35:14;22.80;56.40
7234;DHT22;3658;47.992;10.158;2023-07-31T15:37:40;22.80;55.90
7234;DHT22;3658;47.992;10.158;2023-07-31T15:40:08;22.80;55.70
7234;DHT22;3658;47.992;10.158;2023-07-31T15:42:35;22.70;55.80
7234;DHT22;3658;47.992;10.158;2023-07-31T15:45:06;22.70;55.80
7234;DHT22;3658;47.992;10.158;2023-07-31T15:47:33;22.60;55.70
7234;DHT22;3658;47.992;10.158;2023-07-31T15:50:01;22.60;55.70